Аэропорт: Омск-Центральный. Омск

ICAO: UNOO

METAR:
2022-06-26 12:00:00
UNOO 261200Z 28006MPS 9999 BKN033 24/06 Q0998 R25/CLRD60 NOSIG RMK QFE740
METAR:
2022-06-26 10:55:00
TAF UNOO 261055Z 2612/2712 29005G13MPS 9999 BKN025CB TEMPO 2612/2616 -SHRA BKN020CB BECMG 2617/2619 27003G08MPS TEMPO 2704/2712 31005G13MPS